createdAt,value
2022-07-30T01:42:36.487Z,28.74
2022-07-30T01:45:13.362Z,28.79
2022-07-30T01:47:43.810Z,28.73
2022-07-30T01:50:15.593Z,28.66
2022-07-30T01:52:46.834Z,28.96
2022-07-30T01:55:22.754Z,28.92
2022-07-30T01:57:52.780Z,28.84
2022-07-30T02:00:22.276Z,28.83
2022-07-30T02:02:51.530Z,28.79
2022-07-30T02:05:20.966Z,28.50
2022-07-30T02:08:27.783Z,28.64
2022-07-30T02:11:06.876Z,28.52
2022-07-30T02:13:38.336Z,28.47
2022-07-30T02:16:19.328Z,28.42
2022-07-30T02:19:07.909Z,28.42
2022-07-30T02:21:50.250Z,28.38
2022-07-30T02:24:27.723Z,28.25
2022-07-30T02:27:01.249Z,28.26
2022-07-30T02:29:32.118Z,28.00
2022-07-30T02:32:03.472Z,28.19
2022-07-30T02:34:35.670Z,28.13
2022-07-30T02:37:05.919Z,28.09
2022-07-30T02:39:36.884Z,28.05
2022-07-30T02:42:08.528Z,28.01
2022-07-30T02:44:44.282Z,27.95
2022-07-30T02:47:17.982Z,27.93
2022-07-30T02:49:50.484Z,27.89
2022-07-30T02:52:20.310Z,27.80
2022-07-30T02:54:50.519Z,27.73
2022-07-30T02:57:22.270Z,27.71
2022-07-30T02:59:53.216Z,27.41
2022-07-30T03:02:25.682Z,27.35
2022-07-30T03:05:01.700Z,27.46
2022-07-30T03:07:31.311Z,27.44
2022-07-30T03:10:03.462Z,27.45
2022-07-30T03:12:34.314Z,27.40
2022-07-30T03:15:04.125Z,27.25
2022-07-30T03:17:40.000Z,27.23
2022-07-30T03:20:15.709Z,27.33
2022-07-30T03:22:48.962Z,27.31
2022-07-30T03:25:21.220Z,27.55
2022-07-30T03:27:52.034Z,27.58
2022-07-30T03:30:21.514Z,27.66
2022-07-30T03:32:54.010Z,27.70
2022-07-30T03:35:26.563Z,27.68
2022-07-30T03:37:59.542Z,27.67
2022-07-30T03:40:28.973Z,27.59
2022-07-30T03:42:59.225Z,27.69
2022-07-30T03:45:28.826Z,27.75
2022-07-30T03:47:58.915Z,27.78
2022-07-30T03:50:32.238Z,27.45
2022-07-30T03:53:01.893Z,27.75
2022-07-30T03:55:31.222Z,27.69
2022-07-30T03:58:01.054Z,27.75
2022-07-30T04:00:32.237Z,27.79
2022-07-30T04:03:01.658Z,27.49
2022-07-30T04:05:41.173Z,27.77
2022-07-30T04:08:11.040Z,27.68
2022-07-30T04:10:40.635Z,27.68
2022-07-30T04:13:09.988Z,27.81
2022-07-30T04:16:39.756Z,27.77
2022-07-30T04:19:08.807Z,27.81
2022-07-30T04:21:38.479Z,27.73
2022-07-30T04:24:09.011Z,27.76
2022-07-30T04:26:39.751Z,27.68
2022-07-30T04:29:18.118Z,27.63
2022-07-30T04:31:52.837Z,27.84
2022-07-30T04:34:22.216Z,27.86
2022-07-30T04:36:57.596Z,27.75
2022-07-30T04:39:27.679Z,27.73
2022-07-30T04:41:58.269Z,27.82
2022-07-30T04:44:28.002Z,27.94
2022-07-30T04:46:57.618Z,27.89
2022-07-30T04:49:28.316Z,27.88
2022-07-30T04:51:59.189Z,27.89
2022-07-30T04:54:29.098Z,27.95
2022-07-30T04:57:01.405Z,27.91
2022-07-30T04:59:30.806Z,27.81
2022-07-30T05:02:05.716Z,27.90
2022-07-30T05:04:40.617Z,28.06
2022-07-30T05:07:11.568Z,28.02
2022-07-30T05:09:42.892Z,28.07
2022-07-30T05:12:12.921Z,28.16
2022-07-30T05:14:46.569Z,28.12
2022-07-30T05:17:18.788Z,28.09
2022-07-30T05:19:51.655Z,28.21
2022-07-30T05:22:21.937Z,28.21
2022-07-30T05:24:51.467Z,28.25
2022-07-30T05:27:22.320Z,28.25
2022-07-30T05:29:51.713Z,28.24
2022-07-30T05:32:21.285Z,28.23
2022-07-30T05:34:56.138Z,28.15
2022-07-30T05:37:26.002Z,28.28
2022-07-30T05:39:58.930Z,28.27
2022-07-30T05:42:35.665Z,28.29
2022-07-30T05:45:05.212Z,28.22
2022-07-30T05:47:34.605Z,28.36
2022-07-30T05:50:05.247Z,28.36
2022-07-30T05:52:35.526Z,28.36
2022-07-30T05:55:08.084Z,28.35
2022-07-30T05:57:38.039Z,28.39
2022-07-30T06:00:10.645Z,28.27
2022-07-30T06:02:43.802Z,28.37
2022-07-30T06:05:13.534Z,28.36
2022-07-30T06:07:43.000Z,28.32
2022-07-30T06:10:13.629Z,28.35
2022-07-30T06:12:43.759Z,28.34
2022-07-30T06:15:13.584Z,28.22
2022-07-30T06:17:57.076Z,28.27
2022-07-30T06:20:32.325Z,28.27
2022-07-30T06:23:01.787Z,28.15
2022-07-30T06:25:32.348Z,28.24
2022-07-30T06:28:15.625Z,28.14
2022-07-30T06:30:54.281Z,28.15
2022-07-30T06:33:24.362Z,28.23
2022-07-30T06:35:57.064Z,28.14
2022-07-30T06:38:27.637Z,28.17
2022-07-30T06:41:02.051Z,28.05
2022-07-30T06:43:32.536Z,27.88
2022-07-30T06:46:07.400Z,28.00
2022-07-30T06:48:36.782Z,28.11
2022-07-30T06:51:06.458Z,28.19
2022-07-30T06:53:42.366Z,28.05
2022-07-30T06:56:15.768Z,28.17
2022-07-30T06:58:45.752Z,27.97
2022-07-30T07:01:15.093Z,28.00
2022-07-30T07:03:48.148Z,27.97
2022-07-30T07:06:21.722Z,28.00
2022-07-30T07:08:51.036Z,27.89
2022-07-30T07:11:20.539Z,27.81
2022-07-30T07:13:51.357Z,27.88
2022-07-30T07:16:28.573Z,27.75
2022-07-30T07:18:58.020Z,27.89
2022-07-30T07:21:28.478Z,27.78
2022-07-30T07:23:58.107Z,27.75
2022-07-30T07:26:27.677Z,27.69
2022-07-30T07:28:57.078Z,27.78
2022-07-30T07:32:06.198Z,27.80
2022-07-30T07:34:17.227Z,27.86
2022-07-30T07:36:46.734Z,27.82
2022-07-30T07:39:17.015Z,27.78
2022-07-30T07:41:48.198Z,27.59
2022-07-30T07:44:18.767Z,27.77
2022-07-30T07:46:48.068Z,27.64
2022-07-30T07:49:18.389Z,27.62
2022-07-30T07:51:48.800Z,27.45
2022-07-30T07:54:22.146Z,27.74
2022-07-30T07:56:54.214Z,27.78
2022-07-30T07:59:24.802Z,27.75
2022-07-30T08:02:04.822Z,27.74
2022-07-30T08:04:38.000Z,27.68
2022-07-30T08:07:09.483Z,27.68
2022-07-30T08:09:43.591Z,27.68
2022-07-30T08:12:15.000Z,27.70
2022-07-30T08:14:51.298Z,27.61
2022-07-30T08:17:21.228Z,27.61
2022-07-30T08:19:50.901Z,27.55
2022-07-30T08:22:20.303Z,27.59
2022-07-30T08:24:49.823Z,27.56
2022-07-30T08:27:20.251Z,27.47
2022-07-30T08:29:49.521Z,27.49
2022-07-30T08:32:18.816Z,27.52
2022-07-30T08:34:50.731Z,27.53
2022-07-30T08:37:23.036Z,27.36
2022-07-30T08:39:53.707Z,27.46
2022-07-30T08:42:24.435Z,27.46
2022-07-30T08:44:56.465Z,27.45
2022-07-30T08:47:33.896Z,27.26
2022-07-30T08:50:07.720Z,27.43
2022-07-30T08:52:41.463Z,27.44
2022-07-30T08:55:11.905Z,27.35
2022-07-30T08:57:41.676Z,27.39
2022-07-30T09:00:12.546Z,27.32
2022-07-30T09:02:42.208Z,27.37
2022-07-30T09:05:13.363Z,27.41
2022-07-30T09:07:42.751Z,27.28
2022-07-30T09:10:12.881Z,27.23
2022-07-30T09:12:43.954Z,27.34
2022-07-30T09:15:23.733Z,27.25
2022-07-30T09:17:58.869Z,27.32
2022-07-30T09:20:32.093Z,27.28
2022-07-30T09:23:04.894Z,27.28
2022-07-30T09:25:39.194Z,27.29
2022-07-30T09:28:16.793Z,27.26
2022-07-30T09:30:57.197Z,27.23
2022-07-30T09:33:37.508Z,27.17
2022-07-30T09:36:13.522Z,27.07
2022-07-30T09:38:57.652Z,27.18
2022-07-30T09:41:39.941Z,26.99
2022-07-30T09:44:09.784Z,27.10
2022-07-30T09:46:53.356Z,27.15
2022-07-30T09:49:24.947Z,27.15
2022-07-30T09:51:55.755Z,26.97
2022-07-30T09:54:51.530Z,27.12
2022-07-30T09:57:25.836Z,27.13
2022-07-30T10:00:00.170Z,27.16
2022-07-30T10:02:34.987Z,27.12
2022-07-30T10:05:19.061Z,27.07
2022-07-30T10:08:05.518Z,27.01
2022-07-30T10:10:47.066Z,26.90
2022-07-30T10:13:20.772Z,26.91
2022-07-30T10:15:52.039Z,27.01
2022-07-30T10:18:21.464Z,26.91
2022-07-30T10:20:51.175Z,26.92
2022-07-30T10:23:27.102Z,26.96
2022-07-30T10:25:59.789Z,26.97
2022-07-30T10:28:32.074Z,26.89
2022-07-30T10:31:47.302Z,26.90
2022-07-30T10:33:57.495Z,26.87
2022-07-30T10:36:28.069Z,26.84
2022-07-30T10:39:00.651Z,26.82
2022-07-30T10:41:54.017Z,26.80
2022-07-30T10:44:42.215Z,26.78
2022-07-30T10:47:15.449Z,26.72
2022-07-30T10:50:14.238Z,26.74
2022-07-30T10:52:57.328Z,26.69
2022-07-30T10:55:39.502Z,26.76
2022-07-30T10:58:15.725Z,26.72
2022-07-30T11:00:53.896Z,26.69
2022-07-30T11:03:41.701Z,26.68
2022-07-30T11:06:24.599Z,26.78
2022-07-30T11:08:57.183Z,26.76
2022-07-30T11:12:02.172Z,26.78
2022-07-30T11:14:21.912Z,26.77
2022-07-30T11:17:04.859Z,26.76
2022-07-30T11:19:55.160Z,26.75
2022-07-30T11:22:27.785Z,26.74
2022-07-30T11:24:57.811Z,26.72
2022-07-30T11:27:48.426Z,26.67
2022-07-30T11:30:24.276Z,26.52
2022-07-30T11:32:56.476Z,26.70
2022-07-30T11:35:34.939Z,26.73
2022-07-30T11:38:10.269Z,26.70
2022-07-30T11:40:44.902Z,26.68
2022-07-30T11:43:36.138Z,26.59
2022-07-30T11:46:16.327Z,26.64
2022-07-30T11:49:00.021Z,26.50
2022-07-30T11:51:29.824Z,26.25
2022-07-30T11:54:09.097Z,26.49
2022-07-30T11:56:38.678Z,26.48
2022-07-30T11:59:09.748Z,26.49
2022-07-30T12:01:44.961Z,26.54
2022-07-30T12:04:14.639Z,26.40
2022-07-30T12:06:49.355Z,26.51
2022-07-30T12:09:27.573Z,26.51
2022-07-30T12:11:57.949Z,26.48
2022-07-30T12:14:27.497Z,26.53
2022-07-30T12:16:58.060Z,26.37
2022-07-30T12:19:29.181Z,26.44
2022-07-30T12:22:16.963Z,26.44
2022-07-30T12:24:50.605Z,26.47
2022-07-30T12:27:19.967Z,26.51
2022-07-30T12:29:49.283Z,26.49
2022-07-30T12:32:19.121Z,26.34
2022-07-30T12:35:00.262Z,26.31
2022-07-30T12:37:30.333Z,26.43
2022-07-30T12:40:19.369Z,26.36
2022-07-30T12:43:13.859Z,26.37
2022-07-30T12:45:51.722Z,26.39
2022-07-30T12:48:22.518Z,26.42
2022-07-30T12:51:10.371Z,26.42
2022-07-30T12:53:43.775Z,26.39
2022-07-30T12:56:18.703Z,26.20
2022-07-30T12:58:48.657Z,26.34
2022-07-30T13:01:18.747Z,26.37
2022-07-30T13:03:48.809Z,26.29
2022-07-30T13:06:30.658Z,26.37
2022-07-30T13:09:04.652Z,26.05
2022-07-30T13:11:51.087Z,26.31
2022-07-30T13:14:23.491Z,26.26
2022-07-30T13:17:01.068Z,26.37
2022-07-30T13:19:31.221Z,26.40
2022-07-30T13:22:04.732Z,26.29
2022-07-30T13:24:39.967Z,26.54
2022-07-30T13:27:10.947Z,26.56
2022-07-30T13:29:40.266Z,26.51
2022-07-30T13:32:10.487Z,26.53
2022-07-30T13:34:42.301Z,26.45
2022-07-30T13:37:11.731Z,26.36
2022-07-30T13:39:42.442Z,26.14
2022-07-30T13:42:12.714Z,26.13
2022-07-30T13:44:42.866Z,26.14
2022-07-30T13:47:13.080Z,25.91
2022-07-30T13:49:45.790Z,25.98
2022-07-30T13:52:18.209Z,25.78
2022-07-30T13:54:48.191Z,25.87
2022-07-30T13:57:20.034Z,25.81
2022-07-30T13:59:50.418Z,25.81
2022-07-30T14:02:20.394Z,25.55
2022-07-30T14:04:49.903Z,25.66
2022-07-30T14:07:19.338Z,25.69
2022-07-30T14:09:54.054Z,25.71
2022-07-30T14:12:28.994Z,25.69
2022-07-30T14:14:58.998Z,25.39
2022-07-30T14:17:29.446Z,25.56
2022-07-30T14:19:59.907Z,25.51
2022-07-30T14:22:29.850Z,25.51
2022-07-30T14:25:03.128Z,25.39
2022-07-30T14:27:33.562Z,25.44
2022-07-30T14:30:03.296Z,25.51
2022-07-30T14:32:33.555Z,25.51
2022-07-30T14:35:03.258Z,25.20
2022-07-30T14:37:36.340Z,25.45
2022-07-30T14:40:10.593Z,25.50
2022-07-30T14:42:45.818Z,25.51
2022-07-30T14:45:16.055Z,25.59
2022-07-30T14:47:46.439Z,25.57
2022-07-30T14:50:18.476Z,25.67
2022-07-30T14:52:49.026Z,25.65
2022-07-30T14:55:21.823Z,25.53
2022-07-30T14:57:52.892Z,25.65
2022-07-30T15:00:24.221Z,25.45
2022-07-30T15:03:01.670Z,25.66
2022-07-30T15:05:31.397Z,25.54
2022-07-30T15:08:01.210Z,25.35
2022-07-30T15:10:31.218Z,25.84
2022-07-30T15:13:02.224Z,26.03
2022-07-30T15:15:33.383Z,26.31
2022-07-30T15:18:07.504Z,26.44
2022-07-30T15:20:37.653Z,26.56
2022-07-30T15:23:13.410Z,26.91
2022-07-30T15:25:50.176Z,26.96
2022-07-30T15:28:21.009Z,27.20
2022-07-30T15:30:50.636Z,27.32
2022-07-30T15:33:20.416Z,27.46
2022-07-30T15:35:50.409Z,27.56
2022-07-30T15:38:19.922Z,27.69
2022-07-30T15:40:52.644Z,27.66
2022-07-30T15:43:22.531Z,27.88
2022-07-30T15:45:56.099Z,27.97
2022-07-30T15:48:29.973Z,28.05
2022-07-30T15:51:04.684Z,28.10
2022-07-30T15:53:35.387Z,28.21
2022-07-30T15:56:10.491Z,28.28
2022-07-30T15:58:43.360Z,28.35
2022-07-30T16:01:14.359Z,28.41
2022-07-30T16:03:44.275Z,28.46
2022-07-30T16:06:15.911Z,28.41
2022-07-30T16:08:48.038Z,28.37
2022-07-30T16:11:17.678Z,28.64
2022-07-30T16:13:47.481Z,28.59
2022-07-30T16:16:20.047Z,28.64
2022-07-30T16:18:49.767Z,28.79
2022-07-30T16:21:21.394Z,28.77
2022-07-30T16:23:54.246Z,28.88
2022-07-30T16:26:25.202Z,28.92
2022-07-30T16:28:56.072Z,28.97
2022-07-30T16:31:25.541Z,28.98
2022-07-30T16:33:56.915Z,29.04
2022-07-30T16:36:26.350Z,29.07
2022-07-30T16:38:56.604Z,28.91
2022-07-30T16:41:26.439Z,29.09
2022-07-30T16:43:57.234Z,29.17
2022-07-30T16:46:27.280Z,29.24
2022-07-30T16:48:58.172Z,29.14
2022-07-30T16:51:27.951Z,29.27
2022-07-30T16:53:57.286Z,29.32
2022-07-30T16:56:26.437Z,29.27
2022-07-30T16:58:56.295Z,29.40
2022-07-30T17:01:26.770Z,29.43
2022-07-30T17:03:57.101Z,29.43
2022-07-30T17:06:27.288Z,29.42
2022-07-30T17:08:56.914Z,29.51
2022-07-30T17:11:46.017Z,29.53
2022-07-30T17:14:18.503Z,29.55
2022-07-30T17:16:47.930Z,29.59
2022-07-30T17:19:17.610Z,29.58
2022-07-30T17:21:47.946Z,29.64
2022-07-30T17:24:26.094Z,29.66
2022-07-30T17:26:56.288Z,29.67
2022-07-30T17:29:26.128Z,29.69
2022-07-30T17:31:56.740Z,29.63
2022-07-30T17:34:29.050Z,29.56
2022-07-30T17:36:58.856Z,29.70
2022-07-30T17:40:29.624Z,29.76
2022-07-30T17:42:18.826Z,29.80
2022-07-30T17:44:48.282Z,29.84
2022-07-30T17:47:18.382Z,29.87
2022-07-30T17:49:47.844Z,29.88
2022-07-30T17:52:17.676Z,29.72
2022-07-30T17:54:51.176Z,29.73
2022-07-30T17:57:22.730Z,29.93
2022-07-30T17:59:53.170Z,29.94
2022-07-30T18:02:28.607Z,29.92
2022-07-30T18:05:01.752Z,29.99
2022-07-30T18:07:32.045Z,30.00
2022-07-30T18:10:02.253Z,29.97
2022-07-30T18:12:39.076Z,29.93
2022-07-30T18:15:20.529Z,29.95
2022-07-30T18:17:53.322Z,30.06
2022-07-30T18:20:22.837Z,29.98
2022-07-30T18:22:52.877Z,30.09
2022-07-30T18:25:23.151Z,30.03
2022-07-30T18:27:53.124Z,30.02
2022-07-30T18:30:28.701Z,30.07
2022-07-30T18:33:00.500Z,30.11
2022-07-30T18:35:31.140Z,30.13
2022-07-30T18:38:00.469Z,30.05
2022-07-30T18:40:30.695Z,30.14
2022-07-30T18:43:00.919Z,30.05
2022-07-30T18:45:36.640Z,30.17
2022-07-30T18:48:09.436Z,29.90
2022-07-30T18:50:38.922Z,29.98
2022-07-30T18:53:15.527Z,30.19
2022-07-30T18:55:45.805Z,30.14
2022-07-30T18:58:15.131Z,30.22
2022-07-30T19:00:46.056Z,30.18
2022-07-30T19:03:23.057Z,30.26
2022-07-30T19:05:53.286Z,30.22
2022-07-30T19:08:22.616Z,30.08
2022-07-30T19:10:53.253Z,30.27
2022-07-30T19:13:25.681Z,30.28
2022-07-30T19:15:56.181Z,30.29
2022-07-30T19:18:26.431Z,30.32
2022-07-30T19:20:58.299Z,30.33
2022-07-30T19:23:28.897Z,30.23
2022-07-30T19:26:00.430Z,30.34
2022-07-30T19:28:29.676Z,30.24
2022-07-30T19:30:58.910Z,30.35
2022-07-30T19:33:28.569Z,30.26
2022-07-30T19:35:58.025Z,30.27
2022-07-30T19:38:28.574Z,30.23
2022-07-30T19:41:00.524Z,30.29
2022-07-30T19:43:33.543Z,30.30
2022-07-30T19:46:03.490Z,30.25
2022-07-30T19:48:36.154Z,30.37
2022-07-30T19:51:15.612Z,30.31
2022-07-30T19:53:55.566Z,30.40
2022-07-30T19:56:25.221Z,30.38
2022-07-30T19:58:54.590Z,30.32
2022-07-30T20:01:24.028Z,30.42
2022-07-30T20:04:10.257Z,30.44
2022-07-30T20:09:35.564Z,30.41
2022-07-30T20:12:06.290Z,30.34
2022-07-30T20:14:41.780Z,30.46
2022-07-30T20:20:03.740Z,30.43
2022-07-30T20:22:38.482Z,30.19
2022-07-30T20:25:11.346Z,30.48
2022-07-30T20:27:42.883Z,30.18
2022-07-30T20:30:14.105Z,30.49
2022-07-30T20:32:47.021Z,30.17
2022-07-30T20:35:16.905Z,30.50
2022-07-30T20:37:56.471Z,30.46
2022-07-30T20:40:27.595Z,30.51
2022-07-30T20:42:58.134Z,30.50
2022-07-30T20:45:40.330Z,30.52
2022-07-30T20:48:16.984Z,30.53
2022-07-30T20:50:49.269Z,30.51
2022-07-30T20:53:19.369Z,30.54
2022-07-30T20:55:53.420Z,30.44
2022-07-30T20:58:23.410Z,30.51
2022-07-30T21:00:52.897Z,30.50
2022-07-30T21:03:24.231Z,30.45
2022-07-30T21:05:56.387Z,30.44
2022-07-30T21:08:26.788Z,30.55
2022-07-30T21:10:56.954Z,30.53
2022-07-30T21:13:27.245Z,30.41
2022-07-30T21:16:02.170Z,30.41
2022-07-30T21:18:33.563Z,30.43
2022-07-30T21:21:05.874Z,30.43
2022-07-30T21:23:39.032Z,30.48
2022-07-30T21:26:13.588Z,30.52
2022-07-30T21:28:47.922Z,30.54
2022-07-30T21:31:19.028Z,30.50
2022-07-30T21:34:11.789Z,30.43
2022-07-30T21:36:41.859Z,30.53
2022-07-30T21:39:13.658Z,30.58
2022-07-30T21:41:43.169Z,30.58
2022-07-30T21:44:12.565Z,30.55
2022-07-30T21:46:42.226Z,30.59
2022-07-30T21:49:13.071Z,30.70
2022-07-30T21:51:44.585Z,30.51
2022-07-30T21:54:28.461Z,30.01
2022-07-30T21:56:59.980Z,29.70
2022-07-30T21:59:31.575Z,29.47
2022-07-30T22:02:01.435Z,29.06
2022-07-30T22:04:31.787Z,28.77
2022-07-30T22:07:02.906Z,28.73
2022-07-30T22:09:34.270Z,28.60
2022-07-30T22:12:06.357Z,28.44
2022-07-30T22:14:38.759Z,28.23
2022-07-30T22:17:14.791Z,27.85
2022-07-30T22:19:53.783Z,27.74
2022-07-30T22:22:27.483Z,27.52
2022-07-30T22:25:00.082Z,27.45
2022-07-30T22:27:39.888Z,27.30
2022-07-30T22:30:14.501Z,27.24
2022-07-30T22:32:45.005Z,26.84
2022-07-30T22:35:32.049Z,26.97
2022-07-30T22:38:04.683Z,26.90
2022-07-30T22:40:34.464Z,26.80
2022-07-30T22:43:12.476Z,26.67
2022-07-30T22:45:48.440Z,26.62
2022-07-30T22:48:27.786Z,26.60
2022-07-30T22:50:59.556Z,26.40
2022-07-30T22:54:10.452Z,26.45
2022-07-30T22:56:23.896Z,26.36
2022-07-30T22:58:56.683Z,26.41
2022-07-30T23:01:25.981Z,26.23
2022-07-30T23:03:56.300Z,26.26
2022-07-30T23:06:26.776Z,26.14
2022-07-30T23:08:57.494Z,26.24
2022-07-30T23:12:16.037Z,30.46
2022-07-30T23:12:17.069Z,30.44
2022-07-30T23:12:31.099Z,26.17
2022-07-30T23:14:18.788Z,26.10
2022-07-30T23:16:50.192Z,26.13
2022-07-30T23:19:22.181Z,25.98
2022-07-30T23:21:52.791Z,25.87
2022-07-30T23:24:22.410Z,26.11
2022-07-30T23:26:53.136Z,25.85
2022-07-30T23:29:23.813Z,26.00
2022-07-30T23:31:56.363Z,25.96
2022-07-30T23:34:25.810Z,25.94
2022-07-30T23:36:55.493Z,25.70
2022-07-30T23:39:25.692Z,25.77
2022-07-30T23:41:55.637Z,25.83
2022-07-30T23:44:25.382Z,25.84
2022-07-30T23:46:55.328Z,25.79
2022-07-30T23:49:28.163Z,25.82
2022-07-30T23:52:03.850Z,25.72
2022-07-30T23:54:33.637Z,25.79
2022-07-30T23:57:03.569Z,25.76
2022-07-30T23:59:40.506Z,25.65
